sensor_id;sensor_type;location;lat;lon;timestamp;P1;durP1;ratioP1;P2;durP2;ratioP2
57225;SDS011;43082;43.568;22.256;2022-12-07T00:01:33;24.38;;;17.92;;
57225;SDS011;43082;43.568;22.256;2022-12-07T00:04:00;27.27;;;19.40;;
57225;SDS011;43082;43.568;22.256;2022-12-07T00:06:36;25.67;;;18.05;;
57225;SDS011;43082;43.568;22.256;2022-12-07T00:09:04;26.73;;;20.33;;
57225;SDS011;43082;43.568;22.256;2022-12-07T00:11:30;40.70;;;26.98;;
57225;SDS011;43082;43.568;22.256;2022-12-07T00:13:57;31.33;;;21.73;;
57225;SDS011;43082;43.568;22.256;2022-12-07T00:16:25;21.98;;;15.65;;
57225;SDS011;43082;43.568;22.256;2022-12-07T00:18:52;22.20;;;15.85;;
57225;SDS011;43082;43.568;22.256;2022-12-07T00:21:21;21.48;;;15.27;;
57225;SDS011;43082;43.568;22.256;2022-12-07T00:23:48;17.88;;;13.75;;
57225;SDS011;43082;43.568;22.256;2022-12-07T00:28:44;14.05;;;9.90;;
57225;SDS011;43082;43.568;22.256;2022-12-07T00:31:12;14.80;;;9.93;;
57225;SDS011;43082;43.568;22.256;2022-12-07T00:33:38;14.25;;;10.48;;
57225;SDS011;43082;43.568;22.256;2022-12-07T00:36:05;16.77;;;12.88;;
57225;SDS011;43082;43.568;22.256;2022-12-07T00:38:33;17.73;;;12.52;;
57225;SDS011;43082;43.568;22.256;2022-12-07T00:41:00;19.80;;;14.63;;
57225;SDS011;43082;43.568;22.256;2022-12-07T00:43:27;66.05;;;43.45;;
57225;SDS011;43082;43.568;22.256;2022-12-07T00:45:53;94.13;;;56.97;;
57225;SDS011;43082;43.568;22.256;2022-12-07T00:48:19;48.90;;;31.65;;
57225;SDS011;43082;43.568;22.256;2022-12-07T00:50:45;24.35;;;16.90;;
57225;SDS011;43082;43.568;22.256;2022-12-07T00:53:11;28.25;;;18.63;;
57225;SDS011;43082;43.568;22.256;2022-12-07T00:55:36;19.58;;;12.80;;
57225;SDS011;43082;43.568;22.256;2022-12-07T00:58:02;15.55;;;10.13;;
57225;SDS011;43082;43.568;22.256;2022-12-07T01:00:28;20.92;;;14.75;;
57225;SDS011;43082;43.568;22.256;2022-12-07T01:02:54;19.75;;;14.10;;
57225;SDS011;43082;43.568;22.256;2022-12-07T01:05:19;23.67;;;16.67;;
57225;SDS011;43082;43.568;22.256;2022-12-07T01:07:45;19.58;;;12.82;;
57225;SDS011;43082;43.568;22.256;2022-12-07T01:10:11;20.27;;;14.70;;
57225;SDS011;43082;43.568;22.256;2022-12-07T01:12:37;23.90;;;16.65;;
57225;SDS011;43082;43.568;22.256;2022-12-07T01:15:03;25.05;;;18.55;;
57225;SDS011;43082;43.568;22.256;2022-12-07T01:17:29;25.85;;;18.30;;
57225;SDS011;43082;43.568;22.256;2022-12-07T01:19:54;28.08;;;18.77;;
57225;SDS011;43082;43.568;22.256;2022-12-07T01:22:20;31.67;;;21.52;;
57225;SDS011;43082;43.568;22.256;2022-12-07T01:24:45;27.25;;;19.75;;
57225;SDS011;43082;43.568;22.256;2022-12-07T01:27:11;31.60;;;21.95;;
57225;SDS011;43082;43.568;22.256;2022-12-07T01:29:37;31.83;;;21.67;;
57225;SDS011;43082;43.568;22.256;2022-12-07T01:32:03;36.55;;;24.50;;
57225;SDS011;43082;43.568;22.256;2022-12-07T01:34:28;31.73;;;21.75;;
57225;SDS011;43082;43.568;22.256;2022-12-07T01:36:54;33.63;;;23.30;;
57225;SDS011;43082;43.568;22.256;2022-12-07T01:39:19;26.48;;;18.98;;
57225;SDS011;43082;43.568;22.256;2022-12-07T01:41:45;23.77;;;17.42;;
57225;SDS011;43082;43.568;22.256;2022-12-07T01:44:15;18.38;;;11.90;;
57225;SDS011;43082;43.568;22.256;2022-12-07T01:46:45;21.20;;;15.02;;
57225;SDS011;43082;43.568;22.256;2022-12-07T01:49:16;21.05;;;15.85;;
57225;SDS011;43082;43.568;22.256;2022-12-07T01:51:47;25.52;;;18.58;;
57225;SDS011;43082;43.568;22.256;2022-12-07T01:54:13;22.80;;;15.85;;
57225;SDS011;43082;43.568;22.256;2022-12-07T01:56:40;26.35;;;19.73;;
57225;SDS011;43082;43.568;22.256;2022-12-07T01:59:09;28.75;;;20.60;;
57225;SDS011;43082;43.568;22.256;2022-12-07T02:01:35;30.30;;;19.70;;
57225;SDS011;43082;43.568;22.256;2022-12-07T02:04:00;30.30;;;20.35;;
57225;SDS011;43082;43.568;22.256;2022-12-07T02:06:26;29.38;;;20.67;;
57225;SDS011;43082;43.568;22.256;2022-12-07T02:08:52;30.80;;;23.05;;
57225;SDS011;43082;43.568;22.256;2022-12-07T02:11:17;28.30;;;21.08;;
57225;SDS011;43082;43.568;22.256;2022-12-07T02:13:43;37.03;;;26.02;;
57225;SDS011;43082;43.568;22.256;2022-12-07T02:21:46;35.15;;;25.02;;
57225;SDS011;43082;43.568;22.256;2022-12-07T02:24:19;36.70;;;25.67;;
57225;SDS011;43082;43.568;22.256;2022-12-07T02:29:47;40.45;;;26.75;;
57225;SDS011;43082;43.568;22.256;2022-12-07T02:32:23;36.37;;;26.10;;
57225;SDS011;43082;43.568;22.256;2022-12-07T02:37:49;45.55;;;31.83;;
57225;SDS011;43082;43.568;22.256;2022-12-07T02:40:41;47.42;;;32.78;;
57225;SDS011;43082;43.568;22.256;2022-12-07T02:43:26;39.88;;;26.65;;
57225;SDS011;43082;43.568;22.256;2022-12-07T02:45:55;38.13;;;27.25;;
57225;SDS011;43082;43.568;22.256;2022-12-07T02:48:23;33.45;;;22.98;;
57225;SDS011;43082;43.568;22.256;2022-12-07T02:50:50;26.63;;;17.40;;
57225;SDS011;43082;43.568;22.256;2022-12-07T02:53:32;26.25;;;18.77;;
57225;SDS011;43082;43.568;22.256;2022-12-07T02:56:48;21.98;;;14.82;;
57225;SDS011;43082;43.568;22.256;2022-12-07T02:59:02;15.85;;;10.77;;
57225;SDS011;43082;43.568;22.256;2022-12-07T03:07:18;14.07;;;8.85;;
57225;SDS011;43082;43.568;22.256;2022-12-07T03:12:46;12.93;;;8.82;;
57225;SDS011;43082;43.568;22.256;2022-12-07T03:17:57;22.20;;;15.38;;
57225;SDS011;43082;43.568;22.256;2022-12-07T03:20:24;25.17;;;16.83;;
57225;SDS011;43082;43.568;22.256;2022-12-07T03:22:50;27.70;;;17.98;;
57225;SDS011;43082;43.568;22.256;2022-12-07T03:25:16;26.95;;;18.85;;
57225;SDS011;43082;43.568;22.256;2022-12-07T03:27:53;21.85;;;16.20;;
57225;SDS011;43082;43.568;22.256;2022-12-07T03:30:25;22.25;;;14.95;;
57225;SDS011;43082;43.568;22.256;2022-12-07T03:32:57;23.08;;;15.13;;
57225;SDS011;43082;43.568;22.256;2022-12-07T03:35:47;20.17;;;14.55;;
57225;SDS011;43082;43.568;22.256;2022-12-07T03:38:52;19.23;;;13.75;;
57225;SDS011;43082;43.568;22.256;2022-12-07T03:41:22;17.95;;;12.07;;
57225;SDS011;43082;43.568;22.256;2022-12-07T03:43:50;20.40;;;14.18;;
57225;SDS011;43082;43.568;22.256;2022-12-07T03:46:21;20.52;;;14.27;;
57225;SDS011;43082;43.568;22.256;2022-12-07T03:57:05;11.75;;;7.93;;
57225;SDS011;43082;43.568;22.256;2022-12-07T03:59:32;12.70;;;8.38;;
57225;SDS011;43082;43.568;22.256;2022-12-07T04:02:01;13.60;;;8.75;;
57225;SDS011;43082;43.568;22.256;2022-12-07T04:04:28;12.55;;;8.27;;
57225;SDS011;43082;43.568;22.256;2022-12-07T04:06:54;10.32;;;6.72;;
57225;SDS011;43082;43.568;22.256;2022-12-07T04:09:20;12.02;;;6.82;;
57225;SDS011;43082;43.568;22.256;2022-12-07T04:11:46;11.80;;;6.70;;
57225;SDS011;43082;43.568;22.256;2022-12-07T04:14:11;8.30;;;5.38;;
57225;SDS011;43082;43.568;22.256;2022-12-07T04:16:43;9.18;;;6.07;;
57225;SDS011;43082;43.568;22.256;2022-12-07T04:19:12;8.20;;;5.00;;
57225;SDS011;43082;43.568;22.256;2022-12-07T04:21:38;9.48;;;5.90;;
57225;SDS011;43082;43.568;22.256;2022-12-07T04:24:04;10.55;;;6.75;;
57225;SDS011;43082;43.568;22.256;2022-12-07T04:26:29;13.25;;;9.45;;
57225;SDS011;43082;43.568;22.256;2022-12-07T04:28:55;8.73;;;5.63;;
57225;SDS011;43082;43.568;22.256;2022-12-07T04:31:20;8.00;;;5.05;;
57225;SDS011;43082;43.568;22.256;2022-12-07T04:33:46;7.93;;;4.75;;
57225;SDS011;43082;43.568;22.256;2022-12-07T04:36:11;7.60;;;4.20;;
57225;SDS011;43082;43.568;22.256;2022-12-07T04:38:37;7.10;;;4.28;;
57225;SDS011;43082;43.568;22.256;2022-12-07T04:41:06;7.47;;;4.45;;
57225;SDS011;43082;43.568;22.256;2022-12-07T04:43:32;10.50;;;5.80;;
57225;SDS011;43082;43.568;22.256;2022-12-07T04:45:58;8.85;;;5.53;;
57225;SDS011;43082;43.568;22.256;2022-12-07T04:48:23;8.93;;;5.32;;
57225;SDS011;43082;43.568;22.256;2022-12-07T04:50:49;11.90;;;7.05;;
57225;SDS011;43082;43.568;22.256;2022-12-07T04:53:15;11.20;;;7.57;;
57225;SDS011;43082;43.568;22.256;2022-12-07T04:55:40;10.68;;;7.15;;
57225;SDS011;43082;43.568;22.256;2022-12-07T04:58:06;10.55;;;6.47;;
57225;SDS011;43082;43.568;22.256;2022-12-07T05:00:31;10.27;;;6.78;;
57225;SDS011;43082;43.568;22.256;2022-12-07T05:02:57;9.48;;;5.78;;
57225;SDS011;43082;43.568;22.256;2022-12-07T05:05:22;9.63;;;5.90;;
57225;SDS011;43082;43.568;22.256;2022-12-07T05:07:48;9.57;;;5.90;;
57225;SDS011;43082;43.568;22.256;2022-12-07T05:10:13;11.52;;;7.28;;
57225;SDS011;43082;43.568;22.256;2022-12-07T05:12:39;10.30;;;7.07;;
57225;SDS011;43082;43.568;22.256;2022-12-07T05:15:04;11.00;;;7.80;;
57225;SDS011;43082;43.568;22.256;2022-12-07T05:17:30;9.77;;;6.45;;
57225;SDS011;43082;43.568;22.256;2022-12-07T05:19:55;10.40;;;6.65;;
57225;SDS011;43082;43.568;22.256;2022-12-07T05:22:21;11.52;;;7.50;;
57225;SDS011;43082;43.568;22.256;2022-12-07T05:24:46;11.40;;;7.30;;
57225;SDS011;43082;43.568;22.256;2022-12-07T05:27:12;10.32;;;6.88;;
57225;SDS011;43082;43.568;22.256;2022-12-07T05:29:37;11.02;;;7.30;;
57225;SDS011;43082;43.568;22.256;2022-12-07T05:32:03;12.13;;;8.50;;
57225;SDS011;43082;43.568;22.256;2022-12-07T05:34:28;14.77;;;11.18;;
57225;SDS011;43082;43.568;22.256;2022-12-07T05:36:54;16.20;;;12.88;;
57225;SDS011;43082;43.568;22.256;2022-12-07T05:39:19;18.73;;;14.40;;
57225;SDS011;43082;43.568;22.256;2022-12-07T05:41:45;16.30;;;13.15;;
57225;SDS011;43082;43.568;22.256;2022-12-07T05:44:29;18.33;;;14.25;;
57225;SDS011;43082;43.568;22.256;2022-12-07T05:46:54;18.15;;;13.18;;
57225;SDS011;43082;43.568;22.256;2022-12-07T05:49:19;22.88;;;16.77;;
57225;SDS011;43082;43.568;22.256;2022-12-07T05:51:45;25.63;;;17.77;;
57225;SDS011;43082;43.568;22.256;2022-12-07T05:54:10;21.70;;;16.00;;
57225;SDS011;43082;43.568;22.256;2022-12-07T05:56:36;21.77;;;15.48;;
57225;SDS011;43082;43.568;22.256;2022-12-07T05:59:01;17.25;;;13.30;;
57225;SDS011;43082;43.568;22.256;2022-12-07T06:01:46;17.83;;;13.80;;
57225;SDS011;43082;43.568;22.256;2022-12-07T06:04:11;17.00;;;14.32;;
57225;SDS011;43082;43.568;22.256;2022-12-07T06:06:36;17.40;;;13.20;;
57225;SDS011;43082;43.568;22.256;2022-12-07T06:09:02;18.25;;;14.00;;
57225;SDS011;43082;43.568;22.256;2022-12-07T06:11:28;16.40;;;13.18;;
57225;SDS011;43082;43.568;22.256;2022-12-07T06:14:12;19.30;;;14.20;;
57225;SDS011;43082;43.568;22.256;2022-12-07T06:16:37;20.67;;;15.18;;
57225;SDS011;43082;43.568;22.256;2022-12-07T06:19:03;23.83;;;17.40;;
57225;SDS011;43082;43.568;22.256;2022-12-07T06:21:28;26.17;;;17.55;;
57225;SDS011;43082;43.568;22.256;2022-12-07T06:23:54;32.85;;;22.05;;
57225;SDS011;43082;43.568;22.256;2022-12-07T06:26:19;34.92;;;25.00;;
57225;SDS011;43082;43.568;22.256;2022-12-07T06:28:45;24.48;;;19.08;;
57225;SDS011;43082;43.568;22.256;2022-12-07T06:31:10;34.05;;;24.17;;
57225;SDS011;43082;43.568;22.256;2022-12-07T06:33:36;47.22;;;33.90;;
57225;SDS011;43082;43.568;22.256;2022-12-07T06:36:01;36.08;;;27.70;;
57225;SDS011;43082;43.568;22.256;2022-12-07T06:38:27;33.38;;;24.38;;
57225;SDS011;43082;43.568;22.256;2022-12-07T06:40:52;32.47;;;24.73;;
57225;SDS011;43082;43.568;22.256;2022-12-07T06:43:18;27.27;;;21.95;;
57225;SDS011;43082;43.568;22.256;2022-12-07T06:45:43;32.97;;;24.50;;
57225;SDS011;43082;43.568;22.256;2022-12-07T06:48:09;25.88;;;22.73;;
57225;SDS011;43082;43.568;22.256;2022-12-07T06:50:34;36.88;;;33.20;;
57225;SDS011;43082;43.568;22.256;2022-12-07T06:52:59;28.45;;;24.90;;
57225;SDS011;43082;43.568;22.256;2022-12-07T06:55:25;19.08;;;15.20;;
57225;SDS011;43082;43.568;22.256;2022-12-07T06:57:50;19.38;;;14.15;;
57225;SDS011;43082;43.568;22.256;2022-12-07T07:00:16;17.85;;;12.32;;
57225;SDS011;43082;43.568;22.256;2022-12-07T07:02:42;17.00;;;11.40;;
57225;SDS011;43082;43.568;22.256;2022-12-07T07:05:07;17.00;;;11.85;;
57225;SDS011;43082;43.568;22.256;2022-12-07T07:07:33;18.25;;;13.18;;
57225;SDS011;43082;43.568;22.256;2022-12-07T07:09:58;14.40;;;11.70;;
57225;SDS011;43082;43.568;22.256;2022-12-07T07:12:24;20.52;;;15.68;;
57225;SDS011;43082;43.568;22.256;2022-12-07T07:14:49;21.58;;;15.77;;
57225;SDS011;43082;43.568;22.256;2022-12-07T07:17:15;19.33;;;14.30;;
57225;SDS011;43082;43.568;22.256;2022-12-07T07:19:40;15.98;;;11.90;;
57225;SDS011;43082;43.568;22.256;2022-12-07T07:22:06;17.42;;;13.43;;
57225;SDS011;43082;43.568;22.256;2022-12-07T07:24:31;27.50;;;19.42;;
57225;SDS011;43082;43.568;22.256;2022-12-07T07:26:57;22.48;;;16.65;;
57225;SDS011;43082;43.568;22.256;2022-12-07T07:29:22;23.25;;;16.25;;
57225;SDS011;43082;43.568;22.256;2022-12-07T07:31:48;22.15;;;17.00;;
57225;SDS011;43082;43.568;22.256;2022-12-07T07:34:13;29.15;;;22.40;;
57225;SDS011;43082;43.568;22.256;2022-12-07T07:36:39;21.98;;;16.17;;
57225;SDS011;43082;43.568;22.256;2022-12-07T07:39:04;15.48;;;12.43;;
57225;SDS011;43082;43.568;22.256;2022-12-07T07:41:30;12.32;;;7.97;;
57225;SDS011;43082;43.568;22.256;2022-12-07T07:43:55;11.13;;;8.02;;
57225;SDS011;43082;43.568;22.256;2022-12-07T07:46:21;16.45;;;12.27;;
57225;SDS011;43082;43.568;22.256;2022-12-07T07:48:46;13.50;;;9.82;;
57225;SDS011;43082;43.568;22.256;2022-12-07T07:51:12;15.98;;;10.50;;
57225;SDS011;43082;43.568;22.256;2022-12-07T07:53:37;11.43;;;8.00;;
57225;SDS011;43082;43.568;22.256;2022-12-07T07:56:03;14.13;;;7.07;;
57225;SDS011;43082;43.568;22.256;2022-12-07T07:58:28;16.20;;;9.30;;
57225;SDS011;43082;43.568;22.256;2022-12-07T08:00:54;16.05;;;10.77;;
57225;SDS011;43082;43.568;22.256;2022-12-07T08:03:19;15.95;;;11.70;;
57225;SDS011;43082;43.568;22.256;2022-12-07T08:05:45;14.27;;;10.57;;
57225;SDS011;43082;43.568;22.256;2022-12-07T08:08:10;14.15;;;9.93;;
57225;SDS011;43082;43.568;22.256;2022-12-07T08:10:36;9.52;;;6.80;;
57225;SDS011;43082;43.568;22.256;2022-12-07T08:13:02;11.70;;;7.63;;
57225;SDS011;43082;43.568;22.256;2022-12-07T08:15:38;10.85;;;7.68;;
57225;SDS011;43082;43.568;22.256;2022-12-07T08:18:05;12.10;;;7.88;;
57225;SDS011;43082;43.568;22.256;2022-12-07T08:20:31;13.02;;;9.07;;
57225;SDS011;43082;43.568;22.256;2022-12-07T08:22:57;13.65;;;9.43;;
57225;SDS011;43082;43.568;22.256;2022-12-07T08:25:23;12.60;;;9.48;;
57225;SDS011;43082;43.568;22.256;2022-12-07T08:27:49;12.57;;;9.20;;
57225;SDS011;43082;43.568;22.256;2022-12-07T08:30:15;13.48;;;8.40;;
57225;SDS011;43082;43.568;22.256;2022-12-07T08:32:40;10.45;;;7.45;;
57225;SDS011;43082;43.568;22.256;2022-12-07T08:35:06;9.90;;;6.32;;
57225;SDS011;43082;43.568;22.256;2022-12-07T08:37:32;10.35;;;6.03;;
57225;SDS011;43082;43.568;22.256;2022-12-07T08:39:58;8.35;;;5.32;;
57225;SDS011;43082;43.568;22.256;2022-12-07T08:42:23;8.85;;;5.57;;
57225;SDS011;43082;43.568;22.256;2022-12-07T08:44:52;11.30;;;6.85;;
57225;SDS011;43082;43.568;22.256;2022-12-07T08:47:18;11.15;;;8.38;;
57225;SDS011;43082;43.568;22.256;2022-12-07T08:49:44;12.30;;;8.23;;
57225;SDS011;43082;43.568;22.256;2022-12-07T08:52:13;12.13;;;8.27;;
57225;SDS011;43082;43.568;22.256;2022-12-07T08:54:38;13.10;;;9.50;;
57225;SDS011;43082;43.568;22.256;2022-12-07T08:57:05;11.45;;;8.43;;
57225;SDS011;43082;43.568;22.256;2022-12-07T08:59:31;13.15;;;9.40;;
57225;SDS011;43082;43.568;22.256;2022-12-07T09:01:58;17.23;;;10.02;;
57225;SDS011;43082;43.568;22.256;2022-12-07T09:04:23;17.13;;;12.10;;
57225;SDS011;43082;43.568;22.256;2022-12-07T09:06:49;19.25;;;11.30;;
57225;SDS011;43082;43.568;22.256;2022-12-07T09:09:14;15.20;;;10.50;;
57225;SDS011;43082;43.568;22.256;2022-12-07T09:11:40;15.77;;;10.95;;
57225;SDS011;43082;43.568;22.256;2022-12-07T09:14:05;16.95;;;11.23;;
57225;SDS011;43082;43.568;22.256;2022-12-07T09:16:31;15.75;;;12.20;;
57225;SDS011;43082;43.568;22.256;2022-12-07T09:18:56;18.58;;;13.00;;
57225;SDS011;43082;43.568;22.256;2022-12-07T09:21:22;13.63;;;10.10;;
57225;SDS011;43082;43.568;22.256;2022-12-07T09:23:48;19.85;;;15.00;;
57225;SDS011;43082;43.568;22.256;2022-12-07T09:26:13;20.58;;;15.63;;
57225;SDS011;43082;43.568;22.256;2022-12-07T09:28:38;19.05;;;14.27;;
57225;SDS011;43082;43.568;22.256;2022-12-07T09:31:04;16.02;;;11.82;;
57225;SDS011;43082;43.568;22.256;2022-12-07T09:33:30;10.40;;;6.78;;
57225;SDS011;43082;43.568;22.256;2022-12-07T09:35:55;8.50;;;5.38;;
57225;SDS011;43082;43.568;22.256;2022-12-07T09:38:21;9.63;;;6.88;;
57225;SDS011;43082;43.568;22.256;2022-12-07T09:40:47;7.43;;;4.80;;
57225;SDS011;43082;43.568;22.256;2022-12-07T09:43:22;11.38;;;7.20;;
57225;SDS011;43082;43.568;22.256;2022-12-07T09:45:53;11.13;;;7.50;;
57225;SDS011;43082;43.568;22.256;2022-12-07T09:48:25;10.55;;;6.05;;
57225;SDS011;43082;43.568;22.256;2022-12-07T09:50:58;11.38;;;6.75;;
57225;SDS011;43082;43.568;22.256;2022-12-07T09:53:28;11.25;;;6.18;;
57225;SDS011;43082;43.568;22.256;2022-12-07T09:55:55;10.70;;;6.20;;
57225;SDS011;43082;43.568;22.256;2022-12-07T09:58:25;9.30;;;6.03;;
57225;SDS011;43082;43.568;22.256;2022-12-07T10:01:05;10.02;;;7.10;;
57225;SDS011;43082;43.568;22.256;2022-12-07T10:04:24;11.95;;;7.90;;
57225;SDS011;43082;43.568;22.256;2022-12-07T10:06:41;10.20;;;6.72;;
57225;SDS011;43082;43.568;22.256;2022-12-07T10:09:14;10.40;;;6.78;;
57225;SDS011;43082;43.568;22.256;2022-12-07T10:14:29;11.43;;;7.85;;
57225;SDS011;43082;43.568;22.256;2022-12-07T10:16:57;10.88;;;7.18;;
57225;SDS011;43082;43.568;22.256;2022-12-07T10:19:24;10.52;;;6.90;;
57225;SDS011;43082;43.568;22.256;2022-12-07T10:24:52;16.30;;;10.98;;
57225;SDS011;43082;43.568;22.256;2022-12-07T10:29:46;17.10;;;11.13;;
57225;SDS011;43082;43.568;22.256;2022-12-07T10:34:39;24.02;;;18.08;;
57225;SDS011;43082;43.568;22.256;2022-12-07T10:39:48;23.83;;;14.25;;
57225;SDS011;43082;43.568;22.256;2022-12-07T11:06:37;29.25;;;22.67;;
57225;SDS011;43082;43.568;22.256;2022-12-07T11:11:46;21.63;;;17.42;;
57225;SDS011;43082;43.568;22.256;2022-12-07T11:17:07;23.42;;;17.38;;
57225;SDS011;43082;43.568;22.256;2022-12-07T11:25:25;23.83;;;17.77;;
57225;SDS011;43082;43.568;22.256;2022-12-07T11:33:21;25.30;;;21.20;;
57225;SDS011;43082;43.568;22.256;2022-12-07T11:38:54;21.27;;;15.38;;
57225;SDS011;43082;43.568;22.256;2022-12-07T11:41:23;19.08;;;13.77;;
57225;SDS011;43082;43.568;22.256;2022-12-07T11:43:53;16.50;;;12.52;;
57225;SDS011;43082;43.568;22.256;2022-12-07T11:46:22;11.60;;;8.68;;
57225;SDS011;43082;43.568;22.256;2022-12-07T11:51:37;12.38;;;8.50;;
57225;SDS011;43082;43.568;22.256;2022-12-07T11:54:15;11.75;;;8.35;;
57225;SDS011;43082;43.568;22.256;2022-12-07T11:56:46;11.70;;;8.85;;
57225;SDS011;43082;43.568;22.256;2022-12-07T11:59:16;10.88;;;8.38;;
57225;SDS011;43082;43.568;22.256;2022-12-07T12:01:50;12.50;;;8.90;;
57225;SDS011;43082;43.568;22.256;2022-12-07T12:04:41;13.23;;;8.23;;
57225;SDS011;43082;43.568;22.256;2022-12-07T12:07:23;12.55;;;8.50;;
57225;SDS011;43082;43.568;22.256;2022-12-07T12:09:51;11.93;;;8.40;;
57225;SDS011;43082;43.568;22.256;2022-12-07T12:25:41;10.60;;;7.50;;
57225;SDS011;43082;43.568;22.256;2022-12-07T12:33:50;13.10;;;9.63;;
57225;SDS011;43082;43.568;22.256;2022-12-07T12:46:59;13.88;;;10.23;;
57225;SDS011;43082;43.568;22.256;2022-12-07T12:52:45;12.63;;;9.38;;
57225;SDS011;43082;43.568;22.256;2022-12-07T12:57:46;13.02;;;10.50;;
57225;SDS011;43082;43.568;22.256;2022-12-07T13:00:32;14.07;;;10.43;;
57225;SDS011;43082;43.568;22.256;2022-12-07T13:02:58;13.27;;;11.13;;
57225;SDS011;43082;43.568;22.256;2022-12-07T13:05:28;15.13;;;10.75;;
57225;SDS011;43082;43.568;22.256;2022-12-07T13:10:24;16.23;;;13.07;;
57225;SDS011;43082;43.568;22.256;2022-12-07T13:18:23;16.63;;;12.57;;
57225;SDS011;43082;43.568;22.256;2022-12-07T13:31:46;22.45;;;16.73;;
57225;SDS011;43082;43.568;22.256;2022-12-07T13:34:31;20.30;;;16.15;;
57225;SDS011;43082;43.568;22.256;2022-12-07T13:37:24;24.20;;;18.92;;
57225;SDS011;43082;43.568;22.256;2022-12-07T13:39:59;19.85;;;15.38;;
57225;SDS011;43082;43.568;22.256;2022-12-07T13:42:33;23.55;;;18.85;;
57225;SDS011;43082;43.568;22.256;2022-12-07T13:45:00;22.15;;;16.25;;
57225;SDS011;43082;43.568;22.256;2022-12-07T13:47:43;21.92;;;17.52;;
57225;SDS011;43082;43.568;22.256;2022-12-07T13:50:24;20.63;;;16.10;;
57225;SDS011;43082;43.568;22.256;2022-12-07T13:52:54;21.33;;;14.25;;
57225;SDS011;43082;43.568;22.256;2022-12-07T13:55:21;23.35;;;17.23;;
57225;SDS011;43082;43.568;22.256;2022-12-07T13:57:50;19.23;;;14.68;;
57225;SDS011;43082;43.568;22.256;2022-12-07T14:00:24;24.70;;;19.80;;
57225;SDS011;43082;43.568;22.256;2022-12-07T14:02:59;18.05;;;14.48;;
57225;SDS011;43082;43.568;22.256;2022-12-07T14:05:27;20.00;;;15.73;;
57225;SDS011;43082;43.568;22.256;2022-12-07T14:10:25;16.92;;;13.95;;
57225;SDS011;43082;43.568;22.256;2022-12-07T14:12:51;17.25;;;13.80;;
57225;SDS011;43082;43.568;22.256;2022-12-07T14:15:21;18.92;;;13.07;;
57225;SDS011;43082;43.568;22.256;2022-12-07T14:17:51;18.85;;;14.95;;
57225;SDS011;43082;43.568;22.256;2022-12-07T14:20:32;18.90;;;14.20;;
57225;SDS011;43082;43.568;22.256;2022-12-07T14:22:58;17.65;;;13.55;;
57225;SDS011;43082;43.568;22.256;2022-12-07T14:25:27;17.92;;;13.18;;
57225;SDS011;43082;43.568;22.256;2022-12-07T14:27:57;15.85;;;12.73;;
57225;SDS011;43082;43.568;22.256;2022-12-07T14:30:28;20.30;;;15.45;;
57225;SDS011;43082;43.568;22.256;2022-12-07T14:33:04;16.80;;;13.60;;
57225;SDS011;43082;43.568;22.256;2022-12-07T14:35:30;17.35;;;12.27;;
57225;SDS011;43082;43.568;22.256;2022-12-07T14:37:56;17.10;;;12.57;;
57225;SDS011;43082;43.568;22.256;2022-12-07T14:40:26;16.25;;;12.65;;
57225;SDS011;43082;43.568;22.256;2022-12-07T14:42:54;20.10;;;15.05;;
57225;SDS011;43082;43.568;22.256;2022-12-07T14:45:27;19.65;;;15.20;;
57225;SDS011;43082;43.568;22.256;2022-12-07T14:47:53;16.42;;;11.57;;
57225;SDS011;43082;43.568;22.256;2022-12-07T14:50:19;17.05;;;12.02;;
57225;SDS011;43082;43.568;22.256;2022-12-07T14:52:51;20.48;;;14.52;;
57225;SDS011;43082;43.568;22.256;2022-12-07T14:57:48;22.50;;;16.55;;
57225;SDS011;43082;43.568;22.256;2022-12-07T15:00:14;28.08;;;21.25;;
57225;SDS011;43082;43.568;22.256;2022-12-07T15:02:42;26.75;;;21.55;;
57225;SDS011;43082;43.568;22.256;2022-12-07T15:05:08;36.83;;;24.48;;
57225;SDS011;43082;43.568;22.256;2022-12-07T15:07:34;41.10;;;30.23;;
57225;SDS011;43082;43.568;22.256;2022-12-07T15:10:00;36.38;;;25.77;;
57225;SDS011;43082;43.568;22.256;2022-12-07T15:12:25;28.55;;;17.02;;
57225;SDS011;43082;43.568;22.256;2022-12-07T15:14:52;19.65;;;14.38;;
57225;SDS011;43082;43.568;22.256;2022-12-07T15:17:17;21.10;;;14.45;;
57225;SDS011;43082;43.568;22.256;2022-12-07T15:19:43;20.30;;;14.80;;
57225;SDS011;43082;43.568;22.256;2022-12-07T15:22:08;18.15;;;12.23;;
57225;SDS011;43082;43.568;22.256;2022-12-07T15:24:35;23.25;;;16.30;;
57225;SDS011;43082;43.568;22.256;2022-12-07T15:27:02;23.50;;;15.88;;
57225;SDS011;43082;43.568;22.256;2022-12-07T15:29:27;23.30;;;16.90;;
57225;SDS011;43082;43.568;22.256;2022-12-07T15:31:53;26.50;;;17.08;;
57225;SDS011;43082;43.568;22.256;2022-12-07T15:34:19;41.72;;;27.67;;
57225;SDS011;43082;43.568;22.256;2022-12-07T15:36:44;23.02;;;15.52;;
57225;SDS011;43082;43.568;22.256;2022-12-07T15:39:09;18.05;;;12.88;;
57225;SDS011;43082;43.568;22.256;2022-12-07T15:41:35;18.58;;;13.45;;
57225;SDS011;43082;43.568;22.256;2022-12-07T15:44:01;14.55;;;10.27;;
57225;SDS011;43082;43.568;22.256;2022-12-07T15:46:45;16.63;;;12.10;;
57225;SDS011;43082;43.568;22.256;2022-12-07T15:49:14;18.83;;;13.40;;
57225;SDS011;43082;43.568;22.256;2022-12-07T15:51:42;17.67;;;13.13;;
57225;SDS011;43082;43.568;22.256;2022-12-07T15:54:29;17.35;;;12.52;;
57225;SDS011;43082;43.568;22.256;2022-12-07T15:56:54;19.30;;;12.52;;
57225;SDS011;43082;43.568;22.256;2022-12-07T15:59:20;19.23;;;13.70;;
57225;SDS011;43082;43.568;22.256;2022-12-07T16:01:46;14.10;;;9.43;;
57225;SDS011;43082;43.568;22.256;2022-12-07T16:04:11;16.48;;;10.57;;
57225;SDS011;43082;43.568;22.256;2022-12-07T16:06:37;18.80;;;12.52;;
57225;SDS011;43082;43.568;22.256;2022-12-07T16:09:02;16.48;;;11.88;;
57225;SDS011;43082;43.568;22.256;2022-12-07T16:11:28;15.70;;;11.35;;
57225;SDS011;43082;43.568;22.256;2022-12-07T16:13:54;16.65;;;10.63;;
57225;SDS011;43082;43.568;22.256;2022-12-07T16:16:20;19.45;;;11.13;;
57225;SDS011;43082;43.568;22.256;2022-12-07T16:18:47;15.45;;;10.68;;
57225;SDS011;43082;43.568;22.256;2022-12-07T16:21:13;15.38;;;9.05;;
57225;SDS011;43082;43.568;22.256;2022-12-07T16:23:39;14.52;;;8.80;;
57225;SDS011;43082;43.568;22.256;2022-12-07T16:26:08;14.30;;;9.05;;
57225;SDS011;43082;43.568;22.256;2022-12-07T16:28:36;26.15;;;15.70;;
57225;SDS011;43082;43.568;22.256;2022-12-07T16:31:06;15.48;;;10.40;;
57225;SDS011;43082;43.568;22.256;2022-12-07T16:33:36;17.27;;;11.77;;
57225;SDS011;43082;43.568;22.256;2022-12-07T16:36:03;15.90;;;10.63;;
57225;SDS011;43082;43.568;22.256;2022-12-07T16:38:31;13.68;;;9.30;;
57225;SDS011;43082;43.568;22.256;2022-12-07T16:40:56;14.98;;;10.18;;
57225;SDS011;43082;43.568;22.256;2022-12-07T16:43:22;15.52;;;9.23;;
57225;SDS011;43082;43.568;22.256;2022-12-07T16:45:47;18.90;;;11.50;;
57225;SDS011;43082;43.568;22.256;2022-12-07T16:48:14;16.67;;;11.15;;
57225;SDS011;43082;43.568;22.256;2022-12-07T16:50:40;18.50;;;11.70;;
57225;SDS011;43082;43.568;22.256;2022-12-07T16:53:06;24.35;;;15.73;;